Time;durP1;ratioP1;P1;durP2;ratioP2;P2;SDS_P1;SDS_P2;PMS_P1;PMS_P2;Temp;Humidity;BMP_temperature;BMP_pressure;BME280_temperature;BME280_humidity;BME280_pressure;Samples;Min_cycle;Max_cycle;Signal;HPM_P1;HPM_P2
2022/10/09 00:00:00;;;;;;;0.30;0.30;;;8.50;99.90;;;;;;5047640;28;20197;-81
2022/10/09 00:02:26;;;;;;;0.20;0.20;;;8.60;99.90;;;;;;5041151;28;20558;-81
2022/10/09 00:04:52;;;;;;;0.20;0.20;;;8.70;99.90;;;;;;5044602;28;20301;-80
2022/10/09 00:07:17;;;;;;;0.20;0.20;;;8.70;99.90;;;;;;5054045;28;20235;-81
2022/10/09 00:09:42;;;;;;;0.30;0.30;;;8.70;99.90;;;;;;5049586;28;20251;-80
2022/10/09 00:12:08;;;;;;;0.20;0.20;;;8.70;99.90;;;;;;5048344;28;20201;-81
2022/10/09 00:14:33;;;;;;;0.20;0.20;;;8.70;99.90;;;;;;5046788;28;20182;-80
2022/10/09 00:16:59;;;;;;;0.20;0.20;;;8.70;99.90;;;;;;5055030;28;20197;-81
2022/10/09 00:19:24;;;;;;;0.20;0.20;;;8.60;99.90;;;;;;5054078;28;20601;-80
2022/10/09 00:21:50;;;;;;;0.30;0.30;;;8.50;99.90;;;;;;5059230;28;20776;-80
2022/10/09 00:24:15;;;;;;;0.30;0.30;;;8.50;99.90;;;;;;5050760;28;20197;-80
2022/10/09 00:26:41;;;;;;;0.20;0.20;;;8.50;99.90;;;;;;5050927;28;20194;-81
2022/10/09 00:29:06;;;;;;;0.20;0.20;;;8.50;99.90;;;;;;5045763;28;20190;-80
2022/10/09 00:31:32;;;;;;;0.20;0.20;;;8.60;99.90;;;;;;5042281;28;20270;-81
2022/10/09 00:33:57;;;;;;;0.20;0.20;;;8.60;99.90;;;;;;5045463;28;20190;-81
2022/10/09 00:36:25;;;;;;;0.30;0.30;;;8.60;99.90;;;;;;5045263;28;20232;-81
2022/10/09 00:38:52;;;;;;;0.30;0.30;;;8.60;99.90;;;;;;5041690;28;20191;-82
2022/10/09 00:41:24;;;;;;;0.30;0.30;;;8.60;99.90;;;;;;5035598;28;20972;-81
2022/10/09 00:43:52;;;;;;;0.20;0.20;;;8.50;99.90;;;;;;5036038;28;20533;-81
2022/10/09 00:46:37;;;;;;;0.20;0.20;;;8.50;99.90;;;;;;5047215;28;20453;-80
2022/10/09 00:49:10;;;;;;;0.20;0.20;;;8.50;99.90;;;;;;5044727;28;20480;-81
2022/10/09 00:51:36;;;;;;;0.30;0.30;;;8.40;99.90;;;;;;5052548;28;20448;-80
2022/10/09 00:54:05;;;;;;;0.30;0.30;;;8.40;99.90;;;;;;5042893;28;20441;-81
2022/10/09 00:56:31;;;;;;;0.30;0.30;;;8.40;99.90;;;;;;5041697;28;20435;-80
2022/10/09 00:58:57;;;;;;;0.20;0.20;;;8.40;99.90;;;;;;5051511;28;20506;-81
2022/10/09 01:01:23;;;;;;;0.20;0.20;;;8.40;99.90;;;;;;5035797;28;20183;-81
2022/10/09 01:03:48;;;;;;;0.20;0.20;;;8.30;99.90;;;;;;5045249;28;21013;-81
2022/10/09 01:06:47;;;;;;;0.30;0.30;;;8.30;99.90;;;;;;5038944;28;20190;-81
2022/10/09 01:09:24;;;;;;;0.20;0.20;;;8.30;99.90;;;;;;5042653;28;20182;-81
2022/10/09 01:12:09;;;;;;;0.27;0.27;;;8.30;99.90;;;;;;5043469;28;20438;-81
2022/10/09 01:14:42;;;;;;;0.23;0.23;;;8.30;99.90;;;;;;5047897;28;20441;-81
2022/10/09 01:17:16;;;;;;;0.30;0.30;;;8.30;99.90;;;;;;5042179;28;20495;-81
2022/10/09 01:20:21;;;;;;;0.20;0.20;;;8.40;99.90;;;;;;5039850;28;20975;-81
2022/10/09 01:23:11;;;;;;;0.20;0.20;;;8.40;99.90;;;;;;5052612;28;20442;-80
2022/10/09 01:25:52;;;;;;;0.20;0.20;;;8.50;99.90;;;;;;5044644;28;20855;-80
2022/10/09 01:28:19;;;;;;;0.20;0.20;;;8.50;99.90;;;;;;5057262;28;20441;-81
2022/10/09 01:30:46;;;;;;;0.30;0.30;;;8.50;99.90;;;;;;5043600;28;20441;-81
2022/10/09 01:33:14;;;;;;;0.30;0.30;;;8.50;99.90;;;;;;5038396;28;20437;-80
2022/10/09 01:35:42;;;;;;;0.30;0.30;;;8.50;99.90;;;;;;5035624;28;20462;-81
2022/10/09 01:38:08;;;;;;;0.27;0.27;;;8.50;99.90;;;;;;5037470;28;20846;-80
2022/10/09 01:40:35;;;;;;;0.30;0.30;;;8.50;99.90;;;;;;5053967;28;20452;-81
2022/10/09 01:43:01;;;;;;;0.30;0.30;;;8.40;99.90;;;;;;5039833;28;20437;-80
2022/10/09 01:45:38;;;;;;;0.20;0.20;;;8.40;99.90;;;;;;5039586;28;21022;-80
2022/10/09 01:48:05;;;;;;;0.30;0.30;;;8.40;99.90;;;;;;5043125;28;20440;-81
2022/10/09 01:50:37;;;;;;;0.20;0.20;;;8.40;99.90;;;;;;5041292;28;20523;-81
2022/10/09 01:53:07;;;;;;;0.30;0.30;;;8.40;99.90;;;;;;5048270;28;20509;-80
2022/10/09 01:55:49;;;;;;;0.30;0.30;;;8.40;99.90;;;;;;5037735;28;20492;-81
2022/10/09 01:58:30;;;;;;;0.30;0.30;;;8.40;99.90;;;;;;5050574;28;20441;-80
2022/10/09 02:01:04;;;;;;;0.20;0.20;;;8.30;99.90;;;;;;5041429;28;20454;-81
2022/10/09 02:03:32;;;;;;;0.30;0.30;;;8.30;99.90;;;;;;5043579;28;22426;-80
2022/10/09 02:06:00;;;;;;;0.30;0.30;;;8.20;99.90;;;;;;5034799;28;20492;-81
2022/10/09 02:08:28;;;;;;;0.20;0.20;;;8.20;99.90;;;;;;5039332;28;20931;-80
2022/10/09 02:10:57;;;;;;;0.30;0.30;;;8.30;99.90;;;;;;5037593;28;20445;-82
2022/10/09 02:13:22;;;;;;;0.30;0.30;;;8.20;99.90;;;;;;5063590;28;20436;-81
2022/10/09 02:16:00;;;;;;;0.20;0.20;;;8.20;99.90;;;;;;5036836;28;20807;-81
2022/10/09 02:18:36;;;;;;;0.30;0.30;;;8.20;99.90;;;;;;5048542;28;20182;-80
2022/10/09 02:21:10;;;;;;;0.20;0.20;;;8.10;99.90;;;;;;5032345;28;20441;-81
2022/10/09 02:23:38;;;;;;;0.20;0.20;;;8.20;99.90;;;;;;5042730;28;20527;-80
2022/10/09 02:26:04;;;;;;;0.20;0.20;;;8.10;99.90;;;;;;5041887;28;20902;-81
2022/10/09 02:28:30;;;;;;;0.20;0.20;;;8.10;99.90;;;;;;5043031;28;20453;-83
2022/10/09 02:31:21;;;;;;;0.20;0.20;;;8.10;99.90;;;;;;5038485;28;20448;-81
2022/10/09 02:33:54;;;;;;;0.30;0.30;;;8.10;99.90;;;;;;5044101;28;20441;-80
2022/10/09 02:36:19;;;;;;;0.30;0.30;;;8.10;99.90;;;;;;5032262;28;20441;-81
2022/10/09 02:38:45;;;;;;;0.20;0.20;;;8.00;99.90;;;;;;5052929;28;20423;-80
2022/10/09 02:41:10;;;;;;;0.20;0.20;;;8.00;99.90;;;;;;5036213;28;20191;-81
2022/10/09 02:43:36;;;;;;;0.30;0.30;;;8.00;99.90;;;;;;5046335;28;20231;-81
2022/10/09 02:46:01;;;;;;;0.20;0.20;;;8.00;99.90;;;;;;5041334;28;20282;-80
2022/10/09 02:48:27;;;;;;;0.30;0.30;;;7.90;99.90;;;;;;5042357;28;20207;-80
2022/10/09 02:50:52;;;;;;;0.30;0.30;;;7.80;99.90;;;;;;5038827;28;20236;-81
2022/10/09 02:53:18;;;;;;;0.20;0.20;;;7.90;99.90;;;;;;5041319;28;20243;-80
2022/10/09 02:55:43;;;;;;;0.20;0.20;;;7.90;99.90;;;;;;5040611;28;20741;-81
2022/10/09 02:58:09;;;;;;;0.30;0.30;;;7.90;99.90;;;;;;5043340;28;20723;-81
2022/10/09 03:00:36;;;;;;;0.30;0.30;;;7.90;99.90;;;;;;5046708;28;20182;-81
2022/10/09 03:03:02;;;;;;;0.30;0.30;;;7.90;99.90;;;;;;5048140;28;20215;-81
2022/10/09 03:05:27;;;;;;;0.20;0.20;;;7.90;99.90;;;;;;5048058;28;21050;-81
2022/10/09 03:07:53;;;;;;;0.30;0.30;;;7.90;99.90;;;;;;5045614;28;20717;-80
2022/10/09 03:10:19;;;;;;;0.30;0.30;;;7.80;99.90;;;;;;5055568;28;20190;-80
2022/10/09 03:12:45;;;;;;;0.30;0.30;;;7.80;99.90;;;;;;5040960;28;20190;-80
2022/10/09 03:15:12;;;;;;;0.30;0.30;;;7.80;99.90;;;;;;5053828;28;20785;-81
2022/10/09 03:17:38;;;;;;;0.30;0.30;;;7.70;99.90;;;;;;5052309;28;21019;-80
2022/10/09 03:20:03;;;;;;;0.20;0.20;;;7.70;99.90;;;;;;5046534;28;20532;-82
2022/10/09 03:22:29;;;;;;;0.20;0.20;;;7.70;99.90;;;;;;5034332;28;20186;-81
2022/10/09 03:24:54;;;;;;;0.30;0.30;;;7.70;99.90;;;;;;5036954;28;20490;-80
2022/10/09 03:27:20;;;;;;;0.30;0.30;;;7.70;99.90;;;;;;5049500;28;20650;-80
2022/10/09 03:29:46;;;;;;;0.20;0.20;;;7.70;99.90;;;;;;5038742;28;20198;-80
2022/10/09 03:32:11;;;;;;;0.30;0.30;;;7.70;99.90;;;;;;5054835;28;20193;-80
2022/10/09 03:34:37;;;;;;;0.30;0.30;;;7.70;99.90;;;;;;5046167;28;20183;-80
2022/10/09 03:37:04;;;;;;;0.30;0.30;;;7.70;99.90;;;;;;5044295;28;20229;-80
2022/10/09 03:39:29;;;;;;;0.20;0.20;;;7.70;99.90;;;;;;5045180;28;20206;-80
2022/10/09 03:41:55;;;;;;;0.30;0.30;;;7.70;99.90;;;;;;5040507;28;20962;-81
2022/10/09 03:44:20;;;;;;;0.30;0.30;;;7.70;99.90;;;;;;5040190;28;20664;-80
2022/10/09 03:46:46;;;;;;;0.30;0.30;;;7.70;99.90;;;;;;5048533;28;20186;-81
2022/10/09 03:49:12;;;;;;;0.30;0.30;;;7.70;99.90;;;;;;5045068;28;20187;-80
2022/10/09 03:51:37;;;;;;;0.30;0.30;;;7.70;99.90;;;;;;5042408;28;20210;-81
2022/10/09 03:54:03;;;;;;;0.30;0.30;;;7.70;99.90;;;;;;5041064;28;20457;-81
2022/10/09 03:56:29;;;;;;;0.30;0.30;;;7.60;99.90;;;;;;5031677;28;20554;-81
2022/10/09 03:58:54;;;;;;;0.30;0.30;;;7.60;99.90;;;;;;5051864;28;20194;-80
2022/10/09 04:01:20;;;;;;;0.30;0.30;;;7.60;99.90;;;;;;5041527;28;20191;-81
2022/10/09 04:03:45;;;;;;;0.30;0.30;;;7.60;99.90;;;;;;5066190;28;20202;-81
2022/10/09 04:06:11;;;;;;;0.30;0.30;;;7.50;99.90;;;;;;5047736;28;20195;-82
2022/10/09 04:08:37;;;;;;;0.30;0.30;;;7.60;99.90;;;;;;5066272;28;20183;-82
2022/10/09 04:11:02;;;;;;;0.30;0.30;;;7.50;99.90;;;;;;5039795;28;20245;-81
2022/10/09 04:13:28;;;;;;;0.30;0.30;;;7.50;99.90;;;;;;5047476;28;20190;-82
2022/10/09 04:15:54;;;;;;;0.20;0.20;;;7.50;99.90;;;;;;5039116;28;20215;-83
2022/10/09 04:18:21;;;;;;;0.30;0.30;;;7.50;99.90;;;;;;5036617;28;20244;-83
2022/10/09 04:20:54;;;;;;;0.30;0.30;;;7.60;99.90;;;;;;5046632;28;20445;-80
2022/10/09 04:23:24;;;;;;;0.20;0.20;;;7.50;99.90;;;;;;5040551;28;20503;-80
2022/10/09 04:25:58;;;;;;;0.30;0.30;;;7.50;99.90;;;;;;5042974;28;20476;-82
2022/10/09 04:28:24;;;;;;;0.30;0.30;;;7.50;99.90;;;;;;5048973;28;20527;-82
2022/10/09 04:30:50;;;;;;;0.30;0.30;;;7.50;99.90;;;;;;5048214;28;20467;-82
2022/10/09 04:33:16;;;;;;;0.30;0.30;;;7.50;99.90;;;;;;5055780;28;20964;-80
2022/10/09 04:35:43;;;;;;;0.30;0.30;;;7.50;99.90;;;;;;5043180;28;20608;-79
2022/10/09 04:38:08;;;;;;;0.30;0.30;;;7.40;99.90;;;;;;5042375;28;20186;-80
2022/10/09 04:40:34;;;;;;;0.30;0.30;;;7.40;99.90;;;;;;5034131;28;20444;-81
2022/10/09 04:42:59;;;;;;;0.30;0.30;;;7.40;99.90;;;;;;5052159;28;20196;-80
2022/10/09 04:45:25;;;;;;;0.30;0.30;;;7.40;99.90;;;;;;5046362;28;20735;-81
2022/10/09 04:47:50;;;;;;;0.30;0.30;;;7.40;99.90;;;;;;5044027;28;20179;-80
2022/10/09 04:50:16;;;;;;;0.30;0.30;;;7.40;99.90;;;;;;5048971;28;20551;-81
2022/10/09 04:52:41;;;;;;;0.30;0.30;;;7.40;99.90;;;;;;5042882;28;20189;-80
2022/10/09 04:55:07;;;;;;;0.30;0.30;;;7.40;99.90;;;;;;5059466;28;20187;-80
2022/10/09 04:57:33;;;;;;;0.30;0.30;;;7.40;99.90;;;;;;5052864;28;20189;-81
2022/10/09 04:59:58;;;;;;;0.20;0.20;;;7.40;99.90;;;;;;5042819;28;20444;-80
2022/10/09 05:02:24;;;;;;;0.30;0.30;;;7.30;99.90;;;;;;5043496;28;20190;-81
2022/10/09 05:04:49;;;;;;;0.30;0.30;;;7.30;99.90;;;;;;5043801;28;20258;-81
2022/10/09 05:07:15;;;;;;;0.23;0.23;;;7.30;99.90;;;;;;5043645;28;20194;-80
2022/10/09 05:09:41;;;;;;;0.30;0.30;;;7.30;99.90;;;;;;5045693;28;20186;-80
2022/10/09 05:12:06;;;;;;;0.30;0.30;;;7.30;99.90;;;;;;5044400;28;20604;-80
2022/10/09 05:14:32;;;;;;;0.30;0.30;;;7.30;99.90;;;;;;5042525;28;20198;-80
2022/10/09 05:17:01;;;;;;;0.30;0.30;;;7.30;99.90;;;;;;5037656;28;20250;-80
2022/10/09 05:19:27;;;;;;;0.30;0.30;;;7.30;99.90;;;;;;5039346;28;20193;-80
2022/10/09 05:21:53;;;;;;;0.30;0.30;;;7.30;99.90;;;;;;5029960;28;20427;-79
2022/10/09 05:24:19;;;;;;;0.30;0.30;;;7.30;99.90;;;;;;5045445;28;20301;-81
2022/10/09 05:26:44;;;;;;;0.30;0.30;;;7.20;99.90;;;;;;5042686;28;20183;-81
2022/10/09 05:29:10;;;;;;;0.30;0.30;;;7.20;99.90;;;;;;5040096;28;20639;-81
2022/10/09 05:31:36;;;;;;;0.30;0.30;;;7.20;99.90;;;;;;5043505;28;20197;-80
2022/10/09 05:34:02;;;;;;;0.30;0.30;;;7.20;99.90;;;;;;5054688;28;20191;-81
2022/10/09 05:36:28;;;;;;;0.30;0.30;;;7.20;99.90;;;;;;5042468;28;20536;-80
2022/10/09 05:38:54;;;;;;;0.30;0.30;;;7.10;99.90;;;;;;5045594;28;20552;-80
2022/10/09 05:41:20;;;;;;;0.30;0.30;;;7.10;99.90;;;;;;5040939;28;20187;-82
2022/10/09 05:43:47;;;;;;;0.30;0.30;;;7.10;99.90;;;;;;5042444;28;20468;-80
2022/10/09 05:46:24;;;;;;;0.30;0.30;;;7.10;99.90;;;;;;5040800;28;20234;-82
2022/10/09 05:48:55;;;;;;;0.20;0.20;;;7.10;99.90;;;;;;5039294;28;20687;-83
2022/10/09 05:51:26;;;;;;;0.30;0.30;;;7.00;99.90;;;;;;5040067;28;20487;-81
2022/10/09 05:53:53;;;;;;;0.30;0.30;;;7.10;99.90;;;;;;5038177;28;20925;-82
2022/10/09 05:56:24;;;;;;;0.30;0.30;;;7.10;99.90;;;;;;5038609;28;20961;-82
2022/10/09 05:58:55;;;;;;;0.30;0.30;;;7.10;99.90;;;;;;5037471;28;20573;-80
2022/10/09 06:01:23;;;;;;;0.30;0.30;;;7.00;99.90;;;;;;5036449;28;20460;-80
2022/10/09 06:03:54;;;;;;;0.30;0.30;;;7.00;99.90;;;;;;5041914;28;20534;-82
2022/10/09 06:06:22;;;;;;;0.30;0.30;;;7.00;99.90;;;;;;5042968;28;20660;-81
2022/10/09 06:08:48;;;;;;;0.30;0.30;;;7.00;99.90;;;;;;5042389;28;20445;-81
2022/10/09 06:11:15;;;;;;;0.30;0.30;;;7.00;99.90;;;;;;5040300;28;20459;-82
2022/10/09 06:13:42;;;;;;;0.30;0.30;;;7.10;99.90;;;;;;5041586;28;20186;-80
2022/10/09 06:16:10;;;;;;;0.30;0.30;;;7.10;99.90;;;;;;5042625;28;20530;-80
2022/10/09 06:18:36;;;;;;;0.30;0.30;;;7.10;99.90;;;;;;5041052;28;20701;-81
2022/10/09 06:21:04;;;;;;;0.30;0.30;;;7.00;99.90;;;;;;5049231;28;20901;-81
2022/10/09 06:23:30;;;;;;;0.30;0.30;;;7.00;99.90;;;;;;5038387;28;20495;-82
2022/10/09 06:26:05;;;;;;;0.30;0.30;;;7.10;99.90;;;;;;5044100;28;20575;-82
2022/10/09 06:28:32;;;;;;;0.30;0.30;;;7.10;99.90;;;;;;5045025;28;20531;-83
2022/10/09 06:31:10;;;;;;;0.30;0.30;;;7.10;99.90;;;;;;5048574;28;20476;-82
2022/10/09 06:33:38;;;;;;;0.30;0.30;;;7.20;99.90;;;;;;5049150;28;20440;-84
2022/10/09 06:36:06;;;;;;;0.20;0.20;;;7.20;99.90;;;;;;5054210;28;20448;-84
2022/10/09 06:38:34;;;;;;;0.30;0.30;;;7.30;99.90;;;;;;5036836;28;20474;-83
2022/10/09 06:41:04;;;;;;;0.20;0.20;;;7.30;99.90;;;;;;5064045;28;20910;-84
2022/10/09 06:43:30;;;;;;;0.30;0.30;;;7.30;99.90;;;;;;5046524;28;20579;-85
2022/10/09 06:45:58;;;;;;;0.30;0.30;;;7.40;99.90;;;;;;5059517;28;20576;-84
2022/10/09 06:48:24;;;;;;;0.30;0.30;;;7.30;99.90;;;;;;5043778;28;20318;-85
2022/10/09 06:50:49;;;;;;;0.30;0.30;;;7.40;99.90;;;;;;5041098;28;20572;-83
2022/10/09 06:53:15;;;;;;;0.30;0.30;;;7.40;99.90;;;;;;5038485;28;20292;-84
2022/10/09 06:55:55;;;;;;;0.30;0.30;;;7.40;99.90;;;;;;5052155;28;20189;-85
2022/10/09 06:58:21;;;;;;;0.30;0.30;;;7.50;99.90;;;;;;5047359;28;20190;-86
2022/10/09 07:00:49;;;;;;;0.30;0.30;;;7.50;99.90;;;;;;5048436;28;20433;-85
2022/10/09 07:03:14;;;;;;;0.30;0.30;;;7.60;99.90;;;;;;5047175;28;20185;-84
2022/10/09 07:05:40;;;;;;;0.30;0.30;;;7.70;99.90;;;;;;5053506;28;20480;-83
2022/10/09 07:08:06;;;;;;;0.30;0.30;;;7.80;99.90;;;;;;5054282;28;20179;-83
2022/10/09 07:10:32;;;;;;;0.30;0.30;;;7.80;99.90;;;;;;5045362;28;20194;-83
2022/10/09 07:12:57;;;;;;;0.30;0.30;;;7.90;99.90;;;;;;5049649;28;20187;-84
2022/10/09 07:15:23;;;;;;;0.20;0.20;;;8.00;99.90;;;;;;5048076;28;20804;-84
2022/10/09 07:17:48;;;;;;;0.30;0.30;;;8.00;99.90;;;;;;5041940;28;20187;-84
2022/10/09 07:20:14;;;;;;;0.20;0.20;;;8.10;99.90;;;;;;5043519;28;20670;-84
2022/10/09 07:22:40;;;;;;;0.30;0.30;;;8.10;99.90;;;;;;5050007;28;20214;-84
2022/10/09 07:25:06;;;;;;;0.30;0.30;;;8.30;99.90;;;;;;5047343;28;20263;-86
2022/10/09 07:27:32;;;;;;;0.20;0.20;;;8.40;99.90;;;;;;5044266;28;20202;-84
2022/10/09 07:29:58;;;;;;;0.20;0.20;;;8.30;99.90;;;;;;5048031;28;20453;-86
2022/10/09 07:32:24;;;;;;;0.20;0.20;;;8.40;99.90;;;;;;5041372;28;20195;-83
2022/10/09 07:34:49;;;;;;;0.30;0.30;;;8.50;99.90;;;;;;5050861;28;20437;-83
2022/10/09 07:37:15;;;;;;;0.30;0.30;;;8.60;99.90;;;;;;5043254;28;20497;-84
2022/10/09 07:39:40;;;;;;;0.20;0.20;;;8.70;99.90;;;;;;5037089;28;20183;-85
2022/10/09 07:42:06;;;;;;;0.30;0.30;;;8.80;99.90;;;;;;5038069;28;20600;-85
2022/10/09 07:44:32;;;;;;;0.20;0.20;;;8.90;99.90;;;;;;5047399;28;20243;-82
2022/10/09 07:47:00;;;;;;;0.20;0.20;;;9.00;99.90;;;;;;5032055;28;20187;-82
2022/10/09 07:49:26;;;;;;;0.20;0.20;;;9.00;99.90;;;;;;5058794;28;20444;-83
2022/10/09 07:51:51;;;;;;;0.20;0.20;;;9.10;99.90;;;;;;5041608;28;20513;-84
2022/10/09 07:54:17;;;;;;;0.20;0.20;;;9.10;99.90;;;;;;5056397;28;20183;-84
2022/10/09 07:56:42;;;;;;;0.20;0.20;;;9.20;99.90;;;;;;5049203;28;20273;-85
2022/10/09 07:59:13;;;;;;;0.20;0.20;;;9.20;99.90;;;;;;5055419;28;20561;-85
2022/10/09 08:01:40;;;;;;;0.20;0.20;;;9.30;99.90;;;;;;5046715;28;20202;-86
2022/10/09 08:04:06;;;;;;;0.20;0.20;;;9.30;99.90;;;;;;5050349;28;20430;-83
2022/10/09 08:06:33;;;;;;;0.20;0.20;;;9.50;99.90;;;;;;5062633;28;20967;-84
2022/10/09 08:09:00;;;;;;;0.20;0.20;;;9.50;99.90;;;;;;5059427;28;20444;-85
2022/10/09 08:11:27;;;;;;;0.20;0.20;;;9.60;99.90;;;;;;5049953;28;20863;-86
2022/10/09 08:13:53;;;;;;;0.20;0.20;;;9.80;99.90;;;;;;5050395;28;20478;-84
2022/10/09 08:16:21;;;;;;;0.20;0.20;;;10.00;99.90;;;;;;5039622;28;21022;-86
2022/10/09 08:18:47;;;;;;;0.20;0.20;;;10.10;99.90;;;;;;5040122;28;20540;-84
2022/10/09 08:21:17;;;;;;;0.20;0.20;;;10.30;99.90;;;;;;5045749;28;20540;-86
2022/10/09 08:23:43;;;;;;;0.20;0.20;;;10.60;99.90;;;;;;5048737;28;20448;-86
2022/10/09 08:26:19;;;;;;;0.20;0.20;;;10.80;99.90;;;;;;5043129;28;20495;-85
2022/10/09 08:28:53;;;;;;;0.20;0.20;;;11.00;99.90;;;;;;5046980;28;20190;-86
2022/10/09 08:31:19;;;;;;;0.20;0.20;;;11.10;99.90;;;;;;5058844;28;20440;-85
2022/10/09 08:33:45;;;;;;;0.20;0.20;;;11.40;99.90;;;;;;5042587;28;20990;-85
2022/10/09 08:36:14;;;;;;;0.20;0.20;;;11.50;99.90;;;;;;5044369;28;20537;-87
2022/10/09 08:38:39;;;;;;;0.20;0.20;;;11.60;99.90;;;;;;5034660;28;20219;-86
2022/10/09 08:41:07;;;;;;;0.20;0.20;;;11.70;99.90;;;;;;5040285;28;20887;-86
2022/10/09 08:43:40;;;;;;;0.10;0.10;;;11.80;99.90;;;;;;5043610;28;20242;-87
2022/10/09 08:46:15;;;;;;;0.20;0.20;;;12.00;99.90;;;;;;5045403;28;21116;-88
2022/10/09 08:48:44;;;;;;;0.10;0.10;;;12.10;99.90;;;;;;5045897;28;20815;-87
2022/10/09 08:51:22;;;;;;;0.20;0.20;;;12.20;99.90;;;;;;5039847;28;20449;-89
2022/10/09 08:54:21;;;;;;;0.20;0.20;;;12.40;99.90;;;;;;5038365;28;20559;-87
2022/10/09 08:56:48;;;;;;;0.10;0.10;;;12.40;99.90;;;;;;5028339;28;20527;-86
2022/10/09 08:59:14;;;;;;;0.10;0.10;;;12.60;99.90;;;;;;5041733;28;20529;-85
2022/10/09 09:02:13;;;;;;;0.10;0.10;;;12.60;99.90;;;;;;5038041;28;20990;-88
2022/10/09 09:05:03;;;;;;;0.10;0.10;;;12.70;99.90;;;;;;5034436;28;20293;-87
2022/10/09 09:07:46;;;;;;;0.20;0.20;;;13.10;99.90;;;;;;5037727;28;20817;-86
2022/10/09 09:10:45;;;;;;;0.10;0.10;;;13.30;99.90;;;;;;5044598;28;20488;-89
2022/10/09 09:13:29;;;;;;;0.10;0.10;;;13.50;99.90;;;;;;5051115;28;20506;-87
2022/10/09 09:16:10;;;;;;;0.10;0.10;;;13.50;99.90;;;;;;5043953;28;20453;-86
2022/10/09 09:18:54;;;;;;;0.10;0.10;;;13.70;99.90;;;;;;5042908;28;20496;-87
2022/10/09 09:21:34;;;;;;;0.10;0.10;;;13.80;99.90;;;;;;5047343;28;20583;-88
2022/10/09 09:24:04;;;;;;;0.10;0.10;;;14.00;99.90;;;;;;5032432;28;20436;-87
2022/10/09 09:26:29;;;;;;;0.10;0.10;;;14.30;99.90;;;;;;5040205;28;20506;-89
2022/10/09 09:29:01;;;;;;;0.10;0.10;;;14.40;99.90;;;;;;5038538;28;21697;-86
2022/10/09 09:31:35;;;;;;;0.10;0.10;;;14.00;99.90;;;;;;5049502;28;20637;-88
2022/10/09 09:34:09;;;;;;;0.10;0.10;;;14.20;99.90;;;;;;5046443;28;20438;-88
2022/10/09 09:36:45;;;;;;;0.10;0.10;;;14.30;99.90;;;;;;5048440;28;20453;-85
2022/10/09 09:39:12;;;;;;;0.10;0.10;;;14.70;99.90;;;;;;5038291;28;20454;-86
2022/10/09 09:41:40;;;;;;;0.10;0.10;;;14.80;99.90;;;;;;5042495;28;21119;-88
2022/10/09 09:44:09;;;;;;;0.10;0.10;;;15.00;99.90;;;;;;5041936;28;20519;-87
2022/10/09 09:46:37;;;;;;;0.10;0.10;;;15.00;99.90;;;;;;5044705;28;20450;-89
2022/10/09 09:49:14;;;;;;;0.10;0.10;;;15.20;99.90;;;;;;5042761;28;20527;-90
2022/10/09 09:51:40;;;;;;;0.10;0.10;;;15.40;99.90;;;;;;5038209;28;20463;-90
2022/10/09 09:54:16;;;;;;;0.10;0.10;;;16.00;99.90;;;;;;5047498;28;20849;-92
2022/10/09 09:56:44;;;;;;;0.10;0.10;;;15.90;99.90;;;;;;5061622;28;20236;-92
2022/10/09 09:59:35;;;;;;;0.10;0.10;;;15.70;99.90;;;;;;5045511;28;20451;-96
2022/10/09 10:02:18;;;;;;;0.10;0.10;;;16.10;99.90;;;;;;5049342;28;20441;-94
2022/10/09 10:04:58;;;;;;;0.10;0.10;;;16.30;99.90;;;;;;5038456;28;20468;-90
2022/10/09 10:07:35;;;;;;;0.10;0.10;;;16.50;99.90;;;;;;5045043;28;20476;-93
2022/10/09 10:10:03;;;;;;;0.10;0.10;;;17.10;99.90;;;;;;5047935;28;20432;-94
2022/10/09 10:12:29;;;;;;;0.10;0.10;;;17.00;99.90;;;;;;5056039;28;20453;-94
2022/10/09 10:14:54;;;;;;;0.10;0.10;;;17.30;99.90;;;;;;5052044;28;20437;-94
2022/10/09 10:17:29;;;;;;;0.10;0.10;;;17.50;99.90;;;;;;5052574;28;20653;-93
2022/10/09 10:19:54;;;;;;;0.10;0.10;;;17.10;99.90;;;;;;5070959;28;20181;-91
2022/10/09 10:22:25;;;;;;;0.10;0.10;;;17.80;99.90;;;;;;5062034;28;20447;-96
2022/10/09 10:24:55;;;;;;;0.10;0.10;;;17.40;99.90;;;;;;5047349;28;20225;-86
2022/10/09 10:27:41;;;;;;;0.10;0.10;;;17.10;99.90;;;;;;5042921;28;20590;-89
2022/10/09 10:30:15;;;;;;;0.10;0.10;;;17.60;99.90;;;;;;5052243;28;20453;-88
2022/10/09 10:33:01;;;;;;;0.10;0.10;;;17.80;99.90;;;;;;5045248;28;20437;-89
2022/10/09 10:35:29;;;;;;;0.10;0.10;;;18.00;99.90;;;;;;5043056;28;20425;-89
2022/10/09 10:38:10;;;;;;;0.10;0.10;;;17.70;99.90;;;;;;5048686;28;20531;-89
2022/10/09 10:40:42;;;;;;;0.10;0.10;;;17.40;99.90;;;;;;5045282;28;20437;-89
2022/10/09 10:43:08;;;;;;;0.10;0.00;;;17.80;99.90;;;;;;5047549;28;20537;-87
2022/10/09 10:45:52;;;;;;;0.10;0.10;;;17.80;99.90;;;;;;5041663;28;20481;-88
2022/10/09 10:48:25;;;;;;;0.10;0.10;;;18.40;99.90;;;;;;5047878;28;20183;-87
2022/10/09 10:51:01;;;;;;;0.10;0.10;;;18.70;99.90;;;;;;5038960;28;20516;-88
2022/10/09 10:53:44;;;;;;;0.10;0.10;;;18.30;99.90;;;;;;5043558;28;20847;-88
2022/10/09 10:56:28;;;;;;;0.10;0.00;;;17.60;99.90;;;;;;5048453;28;20443;-87
2022/10/09 10:59:08;;;;;;;0.10;0.00;;;18.20;99.90;;;;;;5046745;28;20531;-89
2022/10/09 11:01:39;;;;;;;0.10;0.00;;;18.90;99.90;;;;;;5048651;28;20467;-88
2022/10/09 11:04:34;;;;;;;0.10;0.00;;;19.00;99.90;;;;;;5050031;28;20451;-88
2022/10/09 11:07:08;;;;;;;0.10;0.10;;;18.80;99.90;;;;;;5044834;28;20445;-87
2022/10/09 11:09:57;;;;;;;0.10;0.00;;;19.40;99.90;;;;;;5054315;28;20489;-91
2022/10/09 11:12:51;;;;;;;0.10;0.00;;;19.50;99.90;;;;;;5037780;28;20519;-87
2022/10/09 11:15:45;;;;;;;0.10;0.00;;;19.20;99.90;;;;;;5049071;28;20438;-87
2022/10/09 11:18:27;;;;;;;0.10;0.10;;;19.70;99.90;;;;;;5044568;28;20464;-89
2022/10/09 11:21:22;;;;;;;0.10;0.10;;;19.90;99.90;;;;;;5067499;28;20523;-89
2022/10/09 11:24:14;;;;;;;0.10;0.00;;;20.10;99.90;;;;;;5043712;28;20494;-87
2022/10/09 11:27:03;;;;;;;0.10;0.00;;;20.10;99.90;;;;;;5026243;28;20471;-87
2022/10/09 11:29:44;;;;;;;0.10;0.00;;;20.40;99.90;;;;;;5034821;28;20499;-85
2022/10/09 11:32:17;;;;;;;0.10;0.00;;;20.30;99.90;;;;;;5052030;28;20462;-87
2022/10/09 11:35:11;;;;;;;0.10;0.00;;;19.80;99.90;;;;;;5045590;28;20449;-86
2022/10/09 11:37:39;;;;;;;0.10;0.00;;;19.80;99.90;;;;;;5047133;28;20890;-89
2022/10/09 11:40:15;;;;;;;0.10;0.10;;;18.30;99.90;;;;;;5045060;28;20452;-88
2022/10/09 11:42:42;;;;;;;0.10;0.00;;;18.70;99.90;;;;;;5042813;28;20452;-86
2022/10/09 11:45:28;;;;;;;0.10;0.00;;;19.40;99.90;;;;;;5042823;28;20484;-87
2022/10/09 11:47:59;;;;;;;0.10;0.00;;;20.50;99.90;;;;;;5063019;28;20452;-87
2022/10/09 11:51:07;;;;;;;0.10;0.00;;;20.10;99.90;;;;;;5044235;28;20507;-86
2022/10/09 11:53:35;;;;;;;0.10;0.00;;;20.40;99.90;;;;;;5034787;28;20507;-87
2022/10/09 11:56:06;;;;;;;0.10;0.00;;;21.10;99.90;;;;;;5041244;28;20434;-86
2022/10/09 11:58:32;;;;;;;0.10;0.00;;;20.80;99.90;;;;;;5044989;28;20445;-87
2022/10/09 12:01:23;;;;;;;0.10;0.00;;;21.10;99.90;;;;;;5042308;28;20499;-88
2022/10/09 12:04:19;;;;;;;0.10;0.00;;;21.80;99.90;;;;;;5035421;28;20210;-86
2022/10/09 12:07:08;;;;;;;0.10;0.00;;;22.70;99.90;;;;;;5042902;28;20583;-86
2022/10/09 12:09:47;;;;;;;0.10;0.00;;;23.20;99.90;;;;;;5040645;28;20456;-87
2022/10/09 12:12:15;;;;;;;0.10;0.00;;;23.10;99.90;;;;;;5045363;28;20448;-88
2022/10/09 12:14:43;;;;;;;0.10;0.00;;;23.40;99.90;;;;;;5046350;28;20456;-88
2022/10/09 12:17:21;;;;;;;0.10;0.00;;;23.80;99.90;;;;;;5049231;28;20444;-87
2022/10/09 12:20:04;;;;;;;0.10;0.00;;;23.60;99.90;;;;;;5051107;28;20452;-85
2022/10/09 12:22:40;;;;;;;0.10;0.00;;;23.00;99.90;;;;;;5049147;28;20436;-86
2022/10/09 12:25:23;;;;;;;0.10;0.00;;;22.50;99.90;;;;;;5045899;28;21237;-86
2022/10/09 12:27:53;;;;;;;0.10;0.00;;;22.70;99.90;;;;;;5041472;28;20807;-86
2022/10/09 12:30:21;;;;;;;0.00;0.00;;;22.80;99.90;;;;;;5050814;28;20506;-87
2022/10/09 12:32:58;;;;;;;0.00;0.00;;;22.60;99.90;;;;;;5045180;28;20445;-87
2022/10/09 12:35:45;;;;;;;0.00;0.00;;;22.40;99.90;;;;;;5046833;28;20929;-89
2022/10/09 12:38:15;;;;;;;0.00;0.00;;;22.90;99.90;;;;;;5071404;28;20534;-87
2022/10/09 12:40:45;;;;;;;0.00;0.00;;;23.00;99.90;;;;;;5049408;28;20516;-87
2022/10/09 12:43:16;;;;;;;0.00;0.00;;;23.20;99.90;;;;;;5039596;28;20469;-88
2022/10/09 12:45:44;;;;;;;0.00;0.00;;;23.10;99.90;;;;;;5039565;28;20476;-87
2022/10/09 12:48:12;;;;;;;0.00;0.00;;;23.30;99.90;;;;;;5046302;28;20966;-90
2022/10/09 12:50:38;;;;;;;0.00;0.00;;;22.70;99.90;;;;;;5044044;28;20751;-86
2022/10/09 12:53:04;;;;;;;0.00;0.00;;;23.70;99.90;;;;;;5041223;28;21014;-86
2022/10/09 12:55:45;;;;;;;0.00;0.00;;;24.00;99.90;;;;;;5038797;28;21479;-88
2022/10/09 12:58:23;;;;;;;0.00;0.00;;;23.60;99.90;;;;;;5036711;28;20550;-86
2022/10/09 13:01:00;;;;;;;0.00;0.00;;;23.40;99.90;;;;;;5042642;28;20454;-88
2022/10/09 13:03:34;;;;;;;0.00;0.00;;;24.00;99.90;;;;;;5037300;28;20529;-86
2022/10/09 13:06:02;;;;;;;0.00;0.00;;;24.40;99.90;;;;;;5039158;28;21061;-86
2022/10/09 13:08:36;;;;;;;0.10;0.00;;;23.60;99.90;;;;;;5043658;28;20473;-89
2022/10/09 13:11:09;;;;;;;0.10;0.00;;;23.20;99.90;;;;;;5040671;28;20468;-87